Time;durP1;ratioP1;P1;durP2;ratioP2;P2;SDS_P1;SDS_P2;PMS_P1;PMS_P2;Temp;Humidity;BMP_temperature;BMP_pressure;BME280_temperature;BME280_humidity;BME280_pressure;Samples;Min_cycle;Max_cycle;Signal;HPM_P1;HPM_P2
2022/02/05 00:02:28;;;;;;;;;;;;;;;;;;5088331;28;19924;-64
2022/02/05 00:04:57;;;;;;;;;;;;;;;;;;5087845;28;19942;-64
2022/02/05 00:07:26;;;;;;;;;;;;;;;;;;5091062;28;19931;-64
2022/02/05 00:10:12;;;;;;;;;;;;;;;;;;5085243;28;19947;-63
2022/02/05 00:12:53;;;;;;;;;;;;;;;;;;5089319;28;19928;-64
2022/02/05 00:40:07;;;;;;;;;;;;;;;;;;5088425;28;19922;-63
2022/02/05 00:42:40;;;;;;;;;;;;;;;;;;5087991;28;19932;-63
2022/02/05 00:45:08;;;;;;;;;;;;;;;;;;5089789;28;19934;-64
2022/02/05 00:47:36;;;;;;;;;;;;;;;;;;5087762;28;19928;-64
2022/02/05 00:50:05;;;;;;;;;;;;;;;;;;5090799;28;20436;-64
2022/02/05 00:52:32;;;;;;;;;;;;;;;;;;5087435;28;19970;-63
2022/02/05 00:55:06;;;;;;;;;;;;;;;;;;5090855;28;19936;-63
2022/02/05 00:57:45;;;;;;;;;;;;;;;;;;5087876;28;20324;-63
2022/02/05 01:00:11;;;;;;;;;;;;;;;;;;5083653;28;19928;-63
2022/02/05 01:02:38;;;;;;;;;;;;;;;;;;5084401;28;19935;-64
2022/02/05 01:05:05;;;;;;;;;;;;;;;;;;5089003;28;19928;-64
2022/02/05 01:07:32;;;;;;;;;;;;;;;;;;5087873;28;19924;-63
2022/02/05 01:09:59;;;;;;;;;;;;;;;;;;5087796;28;19924;-64
2022/02/05 01:12:29;;;;;;;;;;;;;;;;;;5079462;28;19924;-64
2022/02/05 01:14:59;;;;;;;;;;;;;;;;;;5089964;28;20348;-64
2022/02/05 01:17:31;;;;;;;;;;;;;;;;;;5086401;28;19928;-64
2022/02/05 01:20:25;;;;;;;;;;;;;;;;;;5088109;28;19925;-64
2022/02/05 01:22:53;;;;;;;;;;;;;;;;;;5076698;28;20370;-64
2022/02/05 01:25:25;;;;;;;;;;;;;;;;;;5085363;28;19924;-64
2022/02/05 01:27:56;;;;;;;;;;;;;;;;;;5082734;28;19924;-64
2022/02/05 01:30:26;;;;;;;;;;;;;;;;;;5083890;28;19924;-64
2022/02/05 01:33:07;;;;;;;;;;;;;;;;;;5081247;28;20392;-64
2022/02/05 01:35:42;;;;;;;;;;;;;;;;;;5085811;28;19960;-64
2022/02/05 01:49:29;;;;;;;;;;;;;;;;;;5106830;27;20389;-63
2022/02/05 01:52:07;;;;;;;;;;;;;;;;;;5105324;28;20006;-63
2022/02/05 01:54:51;;;;;;;;;;;;;;;;;;5106734;28;19923;-64
2022/02/05 01:57:23;;;;;;;;;;;;;;;;;;5116355;27;19934;-62
2022/02/05 02:05:31;;;;;;;;;;;;;;;;;;5096722;27;19927;-63
2022/02/05 02:13:47;;;;;;;;;;;;;;;;;;5107416;27;19919;-63
2022/02/05 02:16:30;;;;;;;;;;;;;;;;;;5106032;28;19924;-63
2022/02/05 02:19:06;;;;;;;;;;;;;;;;;;5109988;27;20015;-63
2022/02/05 02:21:39;;;;;;;;;;;;;;;;;;5104902;28;19924;-63
2022/02/05 02:24:12;;;;;;;;;;;;;;;;;;5108035;27;19925;-63
2022/02/05 02:26:53;;;;;;;;;;;;;;;;;;5103881;28;20001;-63
2022/02/05 02:29:30;;;;;;;;;;;;;;;;;;5103736;27;19969;-63
2022/02/05 02:31:57;;;;;;;;;;;;;;;;;;5109323;27;20286;-62
2022/02/05 02:34:29;;;;;;;;;;;;;;;;;;5111070;27;19927;-63
2022/02/05 02:37:00;;;;;;;;;;;;;;;;;;5104613;28;20309;-63
2022/02/05 02:39:31;;;;;;;;;;;;;;;;;;5104580;27;19923;-63
2022/02/05 02:42:03;;;;;;;;;;;;;;;;;;5100645;28;19930;-63
2022/02/05 02:44:31;;;;;;;;;;;;;;;;;;5108968;28;20551;-63
2022/02/05 02:46:58;;;;;;;;;;;;;;;;;;5105984;28;19939;-63
2022/02/05 02:49:40;;;;;;;;;;;;;;;;;;5103735;28;19923;-63
2022/02/05 02:57:34;;;;;;;;;;;;;;;;;;5111500;28;20383;-63
2022/02/05 03:00:05;;;;;;;;;;;;;;;;;;5104823;28;19973;-63
2022/02/05 03:02:32;;;;;;;;;;;;;;;;;;5110437;28;20024;-64
2022/02/05 03:04:59;;;;;;;;;;;;;;;;;;5105137;28;19930;-64
2022/02/05 03:07:26;;;;;;;;;;;;;;;;;;5107099;28;19950;-64
2022/02/05 03:09:53;;;;;;;;;;;;;;;;;;5102854;28;19924;-64
2022/02/05 03:12:20;;;;;;;;;;;;;;;;;;5107153;28;19967;-64
2022/02/05 03:14:47;;;;;;;;;;;;;;;;;;5111879;28;19931;-62
2022/02/05 03:17:18;;;;;;;;;;;;;;;;;;5108621;28;19924;-62
2022/02/05 03:19:46;;;;;;;;;;;;;;;;;;5106168;28;20010;-62
2022/02/05 03:22:13;;;;;;;;;;;;;;;;;;5103485;28;19970;-62
2022/02/05 03:24:40;;;;;;;;;;;;;;;;;;5110071;28;19934;-62
2022/02/05 03:27:08;;;;;;;;;;;;;;;;;;5103168;28;19924;-61
2022/02/05 03:29:35;;;;;;;;;;;;;;;;;;5099745;28;19924;-62
2022/02/05 03:32:02;;;;;;;;;;;;;;;;;;5107059;28;19934;-62
2022/02/05 03:34:29;;;;;;;;;;;;;;;;;;5105798;28;19931;-62
2022/02/05 03:36:56;;;;;;;;;;;;;;;;;;5106594;28;19977;-62
2022/02/05 03:39:23;;;;;;;;;;;;;;;;;;5098989;28;19949;-62
2022/02/05 03:41:50;;;;;;;;;;;;;;;;;;5108922;28;19932;-62
2022/02/05 03:44:17;;;;;;;;;;;;;;;;;;5105764;28;19955;-62
2022/02/05 03:46:44;;;;;;;;;;;;;;;;;;5109175;28;19934;-63
2022/02/05 03:49:14;;;;;;;;;;;;;;;;;;5113576;28;19928;-63
2022/02/05 03:51:41;;;;;;;;;;;;;;;;;;5107737;28;20293;-62
2022/02/05 03:54:08;;;;;;;;;;;;;;;;;;5113661;28;20014;-63
2022/02/05 03:56:35;;;;;;;;;;;;;;;;;;5109642;27;19936;-63
2022/02/05 03:59:02;;;;;;;;;;;;;;;;;;5111640;27;19930;-63
2022/02/05 04:01:28;;;;;;;;;;;;;;;;;;5110425;27;19927;-63
2022/02/05 04:03:55;;;;;;;;;;;;;;;;;;5114899;27;20377;-63
2022/02/05 04:06:22;;;;;;;;;;;;;;;;;;5113794;27;19940;-62
2022/02/05 04:08:51;;;;;;;;;;;;;;;;;;5112506;27;19928;-63
2022/02/05 04:11:30;;;;;;;;;;;;;;;;;;5112508;27;19947;-63
2022/02/05 04:16:42;;;;;;;;;;;;;;;;;;5112309;27;19960;-63
2022/02/05 04:19:09;;;;;;;;;;;;;;;;;;5114787;27;19931;-63
2022/02/05 04:21:36;;;;;;;;;;;;;;;;;;5112812;27;19931;-63
2022/02/05 04:24:03;;;;;;;;;;;;;;;;;;5112485;27;19924;-63
2022/02/05 04:26:30;;;;;;;;;;;;;;;;;;5106541;28;19935;-63
2022/02/05 04:28:57;;;;;;;;;;;;;;;;;;5112842;27;19935;-63
2022/02/05 04:31:24;;;;;;;;;;;;;;;;;;5107154;27;19924;-63
2022/02/05 04:33:51;;;;;;;;;;;;;;;;;;5109844;27;20010;-63
2022/02/05 04:36:19;;;;;;;;;;;;;;;;;;5107705;28;19935;-63
2022/02/05 04:38:48;;;;;;;;;;;;;;;;;;5110257;27;19927;-63
2022/02/05 04:41:20;;;;;;;;;;;;;;;;;;5112258;28;19930;-63
2022/02/05 04:44:01;;;;;;;;;;;;;;;;;;5106741;27;19931;-63
2022/02/05 04:49:55;;;;;;;;;;;;;;;;;;5115040;27;19927;-63
2022/02/05 04:55:27;;;;;;;;;;;;;;;;;;5109842;27;19920;-62
2022/02/05 04:58:05;;;;;;;;;;;;;;;;;;5108213;27;20378;-63
2022/02/05 05:00:50;;;;;;;;;;;;;;;;;;5104895;28;19928;-63
2022/02/05 05:03:39;;;;;;;;;;;;;;;;;;5109640;27;19928;-63
2022/02/05 05:06:29;;;;;;;;;;;;;;;;;;5108814;27;19959;-62
2022/02/05 05:09:10;;;;;;;;;;;;;;;;;;5104182;27;19924;-62
2022/02/05 05:11:50;;;;;;;;;;;;;;;;;;5108337;27;19924;-62
2022/02/05 05:20:00;;;;;;;;;;;;;;;;;;5046193;28;19924;-62
2022/02/05 05:22:27;;;;;;;;;;;;;;;;;;5050984;28;19925;-62
2022/02/05 05:24:54;;;;;;;;;;;;;;;;;;5072657;28;19924;-62
2022/02/05 05:27:21;;;;;;;;;;;;;;;;;;5108901;28;19924;-63
2022/02/05 05:29:48;;;;;;;;;;;;;;;;;;5111905;27;19923;-63
2022/02/05 05:32:15;;;;;;;;;;;;;;;;;;5108838;27;19924;-62
2022/02/05 05:34:42;;;;;;;;;;;;;;;;;;5104247;28;19934;-63
2022/02/05 05:37:09;;;;;;;;;;;;;;;;;;5097763;28;20428;-63
2022/02/05 05:39:39;;;;;;;;;;;;;;;;;;5107489;28;19924;-63
2022/02/05 05:42:09;;;;;;;;;;;;;;;;;;5109932;27;19924;-64
2022/02/05 05:44:58;;;;;;;;;;;;;;;;;;5106783;28;20048;-63
2022/02/05 05:47:48;;;;;;;;;;;;;;;;;;5108043;27;19931;-63
2022/02/05 05:52:56;;;;;;;;;;;;;;;;;;5107291;27;19927;-63
2022/02/05 05:55:23;;;;;;;;;;;;;;;;;;5107870;28;19924;-63
2022/02/05 05:57:50;;;;;;;;;;;;;;;;;;5109709;27;20002;-63
2022/02/05 06:00:17;;;;;;;;;;;;;;;;;;5102426;27;20006;-63
2022/02/05 06:02:44;;;;;;;;;;;;;;;;;;5105805;28;20390;-63
2022/02/05 06:05:11;;;;;;;;;;;;;;;;;;5106777;28;19928;-63
2022/02/05 06:07:38;;;;;;;;;;;;;;;;;;5111323;27;20503;-63
2022/02/05 06:10:05;;;;;;;;;;;;;;;;;;5105305;28;19924;-63
2022/02/05 06:12:32;;;;;;;;;;;;;;;;;;5102745;28;19931;-63
2022/02/05 06:15:00;;;;;;;;;;;;;;;;;;5102829;28;19924;-63
2022/02/05 06:17:27;;;;;;;;;;;;;;;;;;5114074;27;19942;-63
2022/02/05 06:19:54;;;;;;;;;;;;;;;;;;5113125;27;19955;-63
2022/02/05 06:22:21;;;;;;;;;;;;;;;;;;5107401;28;20552;-63
2022/02/05 06:24:48;;;;;;;;;;;;;;;;;;5103731;27;20344;-63
2022/02/05 06:27:15;;;;;;;;;;;;;;;;;;5112534;27;20380;-63
2022/02/05 06:29:42;;;;;;;;;;;;;;;;;;5099749;28;19928;-63
2022/02/05 06:32:09;;;;;;;;;;;;;;;;;;5109506;28;19931;-63
2022/02/05 06:34:36;;;;;;;;;;;;;;;;;;5103392;28;19930;-63
2022/02/05 06:37:03;;;;;;;;;;;;;;;;;;5111908;28;19930;-63
2022/02/05 06:39:30;;;;;;;;;;;;;;;;;;5100586;28;19930;-63
2022/02/05 06:41:57;;;;;;;;;;;;;;;;;;5109385;28;19924;-63
2022/02/05 06:44:24;;;;;;;;;;;;;;;;;;5109206;28;19930;-63
2022/02/05 06:46:51;;;;;;;;;;;;;;;;;;5109582;28;20014;-62
2022/02/05 06:49:19;;;;;;;;;;;;;;;;;;5114872;28;19924;-63
2022/02/05 06:51:46;;;;;;;;;;;;;;;;;;5104873;28;19924;-63
2022/02/05 06:54:13;;;;;;;;;;;;;;;;;;5109601;28;20487;-63
2022/02/05 06:56:40;;;;;;;;;;;;;;;;;;5099774;28;19930;-63
2022/02/05 06:59:07;;;;;;;;;;;;;;;;;;5103529;28;19932;-63
2022/02/05 07:01:34;;;;;;;;;;;;;;;;;;5110232;28;19946;-63
2022/02/05 07:04:01;;;;;;;;;;;;;;;;;;5100003;28;20404;-63
2022/02/05 07:06:28;;;;;;;;;;;;;;;;;;5104759;28;20438;-63
2022/02/05 07:08:55;;;;;;;;;;;;;;;;;;5107949;28;19930;-63
2022/02/05 07:11:22;;;;;;;;;;;;;;;;;;5108182;28;20025;-63
2022/02/05 07:13:51;;;;;;;;;;;;;;;;;;5111816;28;19932;-63
2022/02/05 07:16:23;;;;;;;;;;;;;;;;;;5106373;28;19931;-63
2022/02/05 07:19:00;;;;;;;;;;;;;;;;;;5106905;28;19977;-63
2022/02/05 07:21:33;;;;;;;;;;;;;;;;;;5112483;28;19924;-63
2022/02/05 07:24:20;;;;;;;;;;;;;;;;;;5114499;27;19924;-63
2022/02/05 07:29:32;;;;;;;;;;;;;;;;;;5108927;27;20395;-63
2022/02/05 07:31:59;;;;;;;;;;;;;;;;;;5108319;27;19931;-62
2022/02/05 07:34:26;;;;;;;;;;;;;;;;;;5114870;27;20038;-63
2022/02/05 07:36:58;;;;;;;;;;;;;;;;;;5114753;27;19942;-63
2022/02/05 07:39:25;;;;;;;;;;;;;;;;;;5118356;27;20381;-63
2022/02/05 07:41:53;;;;;;;;;;;;;;;;;;5104399;27;19946;-62
2022/02/05 07:44:20;;;;;;;;;;;;;;;;;;5104416;27;19923;-63
2022/02/05 07:46:49;;;;;;;;;;;;;;;;;;5108416;27;19930;-63
2022/02/05 07:49:16;;;;;;;;;;;;;;;;;;5113743;27;20018;-63
2022/02/05 07:51:43;;;;;;;;;;;;;;;;;;5115912;27;19924;-63
2022/02/05 07:54:11;;;;;;;;;;;;;;;;;;5107828;27;19924;-63
2022/02/05 07:56:38;;;;;;;;;;;;;;;;;;5118517;27;20357;-63
2022/02/05 07:59:05;;;;;;;;;;;;;;;;;;5116929;27;19924;-63
2022/02/05 08:01:32;;;;;;;;;;;;;;;;;;5110229;27;20027;-63
2022/02/05 08:03:59;;;;;;;;;;;;;;;;;;5112969;27;20047;-63
2022/02/05 08:06:26;;;;;;;;;;;;;;;;;;5107122;27;19979;-64
2022/02/05 08:08:57;;;;;;;;;;;;;;;;;;5107998;27;19923;-64
2022/02/05 08:11:34;;;;;;;;;;;;;;;;;;5113968;27;20020;-64
2022/02/05 08:14:06;;;;;;;;;;;;;;;;;;5111584;28;20151;-63
2022/02/05 08:16:47;;;;;;;;;;;;;;;;;;5110380;27;19924;-64
2022/02/05 08:19:14;;;;;;;;;;;;;;;;;;5114213;27;19924;-64
2022/02/05 08:21:41;;;;;;;;;;;;;;;;;;5111473;27;19927;-64
2022/02/05 08:24:08;;;;;;;;;;;;;;;;;;5115648;27;19946;-63
2022/02/05 08:26:35;;;;;;;;;;;;;;;;;;5105346;28;20028;-63
2022/02/05 08:29:03;;;;;;;;;;;;;;;;;;5114303;27;20022;-64
2022/02/05 08:31:29;;;;;;;;;;;;;;;;;;5109655;27;20346;-64
2022/02/05 08:33:56;;;;;;;;;;;;;;;;;;5114184;27;19924;-64
2022/02/05 08:36:23;;;;;;;;;;;;;;;;;;5108149;27;20441;-64
2022/02/05 08:38:50;;;;;;;;;;;;;;;;;;5108074;28;19977;-64
2022/02/05 08:41:17;;;;;;;;;;;;;;;;;;5112478;27;19924;-64
2022/02/05 08:43:44;;;;;;;;;;;;;;;;;;5111810;27;19947;-64
2022/02/05 08:46:11;;;;;;;;;;;;;;;;;;5110284;28;20385;-63
2022/02/05 08:48:38;;;;;;;;;;;;;;;;;;5108236;27;20092;-63
2022/02/05 08:51:05;;;;;;;;;;;;;;;;;;5108765;27;20335;-63
2022/02/05 08:53:32;;;;;;;;;;;;;;;;;;5103620;27;19935;-63
2022/02/05 08:55:59;;;;;;;;;;;;;;;;;;5113801;27;19924;-63
2022/02/05 08:58:26;;;;;;;;;;;;;;;;;;5108360;28;19928;-63
2022/02/05 09:01:06;;;;;;;;;;;;;;;;;;5112228;27;20018;-62
2022/02/05 09:03:39;;;;;;;;;;;;;;;;;;5106075;27;19931;-63
2022/02/05 09:06:06;;;;;;;;;;;;;;;;;;5110272;28;20305;-63
2022/02/05 09:08:37;;;;;;;;;;;;;;;;;;5106585;27;20008;-64
2022/02/05 09:11:09;;;;;;;;;;;;;;;;;;5107843;27;19924;-64
2022/02/05 09:13:53;;;;;;;;;;;;;;;;;;5107940;27;19924;-63
2022/02/05 09:16:20;;;;;;;;;;;;;;;;;;5110380;27;19942;-63
2022/02/05 09:18:47;;;;;;;;;;;;;;;;;;5111169;27;19954;-64
2022/02/05 09:21:14;;;;;;;;;;;;;;;;;;5105561;27;19975;-64
2022/02/05 09:23:41;;;;;;;;;;;;;;;;;;5109121;27;22090;-64
2022/02/05 09:26:07;;;;;;;;;;;;;;;;;;5105361;27;20211;-64
2022/02/05 09:28:34;;;;;;;;;;;;;;;;;;5107650;27;19946;-65
2022/02/05 09:31:24;;;;;;;;;;;;;;;;;;5107869;27;19971;-65
2022/02/05 09:33:50;;;;;;;;;;;;;;;;;;5110794;27;19928;-64
2022/02/05 09:36:17;;;;;;;;;;;;;;;;;;5106303;27;20026;-64
2022/02/05 09:38:43;;;;;;;;;;;;;;;;;;5108087;27;20009;-64
2022/02/05 09:41:10;;;;;;;;;;;;;;;;;;5102700;27;20396;-65
2022/02/05 09:43:37;;;;;;;;;;;;;;;;;;5106800;27;19932;-65
2022/02/05 09:46:04;;;;;;;;;;;;;;;;;;5109876;27;20300;-64
2022/02/05 09:48:32;;;;;;;;;;;;;;;;;;5103106;27;19932;-64
2022/02/05 09:51:04;;;;;;;;;;;;;;;;;;5106700;27;19923;-64
2022/02/05 09:53:31;;;;;;;;;;;;;;;;;;5111283;27;19931;-64
2022/02/05 09:55:58;;;;;;;;;;;;;;;;;;5107144;27;19923;-65
2022/02/05 09:58:25;;;;;;;;;;;;;;;;;;5104566;27;19935;-65
2022/02/05 10:00:52;;;;;;;;;;;;;;;;;;5108472;27;19932;-64
2022/02/05 10:03:18;;;;;;;;;;;;;;;;;;5106139;28;19928;-65
2022/02/05 10:05:45;;;;;;;;;;;;;;;;;;5109434;27;19923;-65
2022/02/05 10:08:14;;;;;;;;;;;;;;;;;;5105900;27;19955;-64
2022/02/05 10:10:41;;;;;;;;;;;;;;;;;;5109272;27;19932;-64
2022/02/05 10:13:08;;;;;;;;;;;;;;;;;;5109138;27;20395;-63
2022/02/05 10:15:35;;;;;;;;;;;;;;;;;;5106729;27;19924;-64
2022/02/05 10:18:03;;;;;;;;;;;;;;;;;;5109258;27;19923;-64
2022/02/05 10:20:30;;;;;;;;;;;;;;;;;;5098533;27;20405;-63
2022/02/05 10:22:57;;;;;;;;;;;;;;;;;;5110342;27;20384;-63
2022/02/05 10:25:24;;;;;;;;;;;;;;;;;;5107764;27;19923;-63
2022/02/05 10:27:52;;;;;;;;;;;;;;;;;;5104210;27;19949;-63
2022/02/05 10:30:22;;;;;;;;;;;;;;;;;;5108775;27;19927;-64
2022/02/05 10:32:51;;;;;;;;;;;;;;;;;;5110154;27;19924;-64
2022/02/05 10:35:27;;;;;;;;;;;;;;;;;;5108629;27;20014;-64
2022/02/05 10:37:58;;;;;;;;;;;;;;;;;;5111999;27;20753;-63
2022/02/05 10:40:42;;;;;;;;;;;;;;;;;;5106755;27;20270;-64
2022/02/05 10:43:08;;;;;;;;;;;;;;;;;;5108173;28;20377;-64
2022/02/05 10:45:35;;;;;;;;;;;;;;;;;;5107590;28;19927;-64
2022/02/05 10:48:01;;;;;;;;;;;;;;;;;;5106516;28;19934;-64
2022/02/05 10:50:28;;;;;;;;;;;;;;;;;;5104264;28;19923;-64
2022/02/05 10:52:59;;;;;;;;;;;;;;;;;;5100469;28;19923;-64
2022/02/05 10:55:35;;;;;;;;;;;;;;;;;;5100762;28;20010;-65
2022/02/05 10:58:17;;;;;;;;;;;;;;;;;;5105997;28;19967;-65
2022/02/05 11:06:13;;;;;;;;;;;;;;;;;;5104781;28;20422;-65
2022/02/05 11:08:40;;;;;;;;;;;;;;;;;;5106153;28;19931;-66
2022/02/05 11:19:23;;;;;;;;;;;;;;;;;;5106320;28;19924;-65
2022/02/05 11:21:50;;;;;;;;;;;;;;;;;;5111927;28;20252;-64
2022/02/05 11:24:17;;;;;;;;;;;;;;;;;;5110472;28;20327;-64
2022/02/05 11:26:44;;;;;;;;;;;;;;;;;;5106147;28;19930;-64
2022/02/05 11:29:11;;;;;;;;;;;;;;;;;;5102076;28;19931;-64
2022/02/05 11:31:39;;;;;;;;;;;;;;;;;;5102314;28;19931;-65
2022/02/05 11:34:06;;;;;;;;;;;;;;;;;;5111518;28;19976;-65
2022/02/05 11:36:44;;;;;;;;;;;;;;;;;;5111106;28;19934;-65
2022/02/05 11:39:10;;;;;;;;;;;;;;;;;;5109254;28;19931;-64
2022/02/05 11:41:38;;;;;;;;;;;;;;;;;;5105351;28;19930;-65
2022/02/05 11:44:05;;;;;;;;;;;;;;;;;;5104513;28;20274;-65
2022/02/05 11:46:33;;;;;;;;;;;;;;;;;;5106210;28;19967;-65
2022/02/05 11:49:02;;;;;;;;;;;;;;;;;;5104807;28;20038;-65
2022/02/05 11:51:29;;;;;;;;;;;;;;;;;;5111324;28;19948;-64
2022/02/05 11:53:56;;;;;;;;;;;;;;;;;;5108983;28;19924;-65
2022/02/05 11:56:23;;;;;;;;;;;;;;;;;;5112988;28;19927;-65
2022/02/05 11:58:50;;;;;;;;;;;;;;;;;;5105915;28;19934;-65
2022/02/05 12:01:17;;;;;;;;;;;;;;;;;;5100600;28;19924;-65
2022/02/05 12:03:44;;;;;;;;;;;;;;;;;;5107660;28;19930;-65
2022/02/05 12:06:12;;;;;;;;;;;;;;;;;;5099897;28;19946;-65
2022/02/05 12:08:39;;;;;;;;;;;;;;;;;;5099205;27;19930;-65
2022/02/05 12:11:06;;;;;;;;;;;;;;;;;;5116896;27;20010;-65
2022/02/05 12:13:36;;;;;;;;;;;;;;;;;;5115906;27;19934;-65
2022/02/05 12:16:05;;;;;;;;;;;;;;;;;;5114991;27;19931;-64
2022/02/05 12:18:33;;;;;;;;;;;;;;;;;;5107439;27;20078;-65
2022/02/05 12:21:04;;;;;;;;;;;;;;;;;;5108616;28;19923;-64
2022/02/05 12:23:53;;;;;;;;;;;;;;;;;;5113244;27;19969;-65
2022/02/05 12:26:19;;;;;;;;;;;;;;;;;;5105392;27;19924;-64
2022/02/05 12:28:46;;;;;;;;;;;;;;;;;;5111218;27;20300;-64
2022/02/05 12:31:12;;;;;;;;;;;;;;;;;;5113624;27;19931;-65
2022/02/05 12:33:39;;;;;;;;;;;;;;;;;;5113148;27;19932;-65
2022/02/05 12:36:06;;;;;;;;;;;;;;;;;;5109715;27;19946;-63
2022/02/05 12:38:33;;;;;;;;;;;;;;;;;;5105728;28;19947;-64
2022/02/05 12:41:00;;;;;;;;;;;;;;;;;;5103227;28;19924;-64
2022/02/05 12:43:31;;;;;;;;;;;;;;;;;;5106642;27;19927;-64
2022/02/05 12:46:07;;;;;;;;;;;;;;;;;;5104610;27;19924;-65
2022/02/05 12:48:34;;;;;;;;;;;;;;;;;;5101972;27;20019;-65
2022/02/05 12:51:01;;;;;;;;;;;;;;;;;;5106455;28;20021;-65
2022/02/05 12:53:28;;;;;;;;;;;;;;;;;;5108158;28;19935;-64
2022/02/05 12:55:55;;;;;;;;;;;;;;;;;;5105030;28;19924;-64
2022/02/05 12:58:22;;;;;;;;;;;;;;;;;;5108543;27;20477;-63
2022/02/05 13:00:49;;;;;;;;;;;;;;;;;;5104677;28;20020;-63
2022/02/05 13:03:16;;;;;;;;;;;;;;;;;;5107309;27;19928;-64
2022/02/05 13:05:43;;;;;;;;;;;;;;;;;;5108098;27;19935;-64
2022/02/05 13:08:10;;;;;;;;;;;;;;;;;;5109785;27;19928;-64
2022/02/05 13:10:36;;;;;;;;;;;;;;;;;;5104638;27;19932;-64
2022/02/05 13:13:03;;;;;;;;;;;;;;;;;;5103192;27;19930;-65
2022/02/05 13:15:31;;;;;;;;;;;;;;;;;;5104878;27;19946;-65
2022/02/05 13:18:14;;;;;;;;;;;;;;;;;;5107657;27;19924;-63
2022/02/05 13:26:14;;;;;;;;;;;;;;;;;;5107067;27;19919;-64
2022/02/05 13:28:45;;;;;;;;;;;;;;;;;;5103174;28;19934;-64
2022/02/05 13:34:11;;;;;;;;;;;;;;;;;;5104358;27;19918;-63
2022/02/05 13:36:41;;;;;;;;;;;;;;;;;;5103827;28;19931;-63
2022/02/05 13:39:15;;;;;;;;;;;;;;;;;;5102827;28;20284;-63
2022/02/05 13:44:21;;;;;;;;;;;;;;;;;;5064255;28;20015;-63
2022/02/05 13:46:48;;;;;;;;;;;;;;;;;;5062682;28;19935;-64
2022/02/05 13:49:15;;;;;;;;;;;;;;;;;;5064986;28;19925;-64
2022/02/05 13:51:42;;;;;;;;;;;;;;;;;;5062352;28;20446;-65
2022/02/05 13:54:09;;;;;;;;;;;;;;;;;;5064844;28;20023;-64
2022/02/05 13:56:36;;;;;;;;;;;;;;;;;;5063496;28;19929;-64
2022/02/05 13:59:03;;;;;;;;;;;;;;;;;;5062817;28;19936;-64
2022/02/05 14:01:30;;;;;;;;;;;;;;;;;;5066046;28;19932;-63
2022/02/05 14:03:57;;;;;;;;;;;;;;;;;;5063622;28;19931;-63
2022/02/05 14:06:25;;;;;;;;;;;;;;;;;;5065476;28;20339;-64
2022/02/05 14:08:52;;;;;;;;;;;;;;;;;;5064635;28;19928;-65
2022/02/05 14:11:19;;;;;;;;;;;;;;;;;;5060063;28;20408;-64
2022/02/05 14:13:46;;;;;;;;;;;;;;;;;;5060826;28;19929;-64
2022/02/05 14:16:13;;;;;;;;;;;;;;;;;;5061613;28;19997;-65
2022/02/05 14:18:40;;;;;;;;;;;;;;;;;;5055717;28;20345;-64
2022/02/05 14:21:07;;;;;;;;;;;;;;;;;;5061420;28;20554;-64
2022/02/05 14:23:34;;;;;;;;;;;;;;;;;;5065728;28;19929;-65
2022/02/05 14:26:06;;;;;;;;;;;;;;;;;;5057640;28;19932;-66
2022/02/05 14:28:34;;;;;;;;;;;;;;;;;;5065175;28;20397;-66
2022/02/05 14:31:12;;;;;;;;;;;;;;;;;;5060085;28;19928;-65
2022/02/05 14:33:52;;;;;;;;;;;;;;;;;;5061964;28;20036;-65
2022/02/05 14:36:34;;;;;;;;;;;;;;;;;;5061896;28;19924;-64
2022/02/05 14:41:45;;;;;;;;;;;;;;;;;;5061891;28;20301;-64
2022/02/05 14:44:12;;;;;;;;;;;;;;;;;;5062542;28;20457;-64
2022/02/05 14:46:40;;;;;;;;;;;;;;;;;;5064636;28;19935;-64
2022/02/05 14:49:07;;;;;;;;;;;;;;;;;;5063666;28;20023;-63
2022/02/05 14:51:34;;;;;;;;;;;;;;;;;;5063437;28;19931;-65
2022/02/05 14:54:01;;;;;;;;;;;;;;;;;;5062659;28;19925;-65
2022/02/05 14:56:31;;;;;;;;;;;;;;;;;;5059373;28;19967;-65
2022/02/05 14:58:58;;;;;;;;;;;;;;;;;;5058163;28;19924;-66
2022/02/05 15:01:25;;;;;;;;;;;;;;;;;;5062547;28;19978;-64
2022/02/05 15:03:52;;;;;;;;;;;;;;;;;;5061897;28;19963;-64
2022/02/05 15:06:21;;;;;;;;;;;;;;;;;;5061131;28;20021;-63
2022/02/05 15:08:48;;;;;;;;;;;;;;;;;;5060396;28;19924;-64
2022/02/05 15:11:15;;;;;;;;;;;;;;;;;;5058953;28;19924;-64
2022/02/05 15:13:42;;;;;;;;;;;;;;;;;;5062166;28;20389;-65
2022/02/05 15:16:11;;;;;;;;;;;;;;;;;;5058496;28;19925;-64
2022/02/05 15:18:40;;;;;;;;;;;;;;;;;;5060229;28;19936;-65
2022/02/05 15:21:07;;;;;;;;;;;;;;;;;;5062385;28;19931;-63
2022/02/05 15:23:34;;;;;;;;;;;;;;;;;;5064267;28;19924;-64
2022/02/05 15:26:02;;;;;;;;;;;;;;;;;;5064919;28;19925;-63
2022/02/05 15:28:31;;;;;;;;;;;;;;;;;;5061867;28;20449;-63
2022/02/05 15:30:58;;;;;;;;;;;;;;;;;;5060782;28;20459;-63
2022/02/05 15:33:25;;;;;;;;;;;;;;;;;;5066206;28;20020;-63
2022/02/05 15:35:56;;;;;;;;;;;;;;;;;;5062322;28;20424;-63
2022/02/05 15:38:31;;;;;;;;;;;;;;;;;;5059364;28;20423;-63
2022/02/05 15:43:47;;;;;;;;;;;;;;;;;;5067277;28;19927;-64
2022/02/05 15:46:14;;;;;;;;;;;;;;;;;;5063386;28;19924;-64
2022/02/05 15:48:41;;;;;;;;;;;;;;;;;;5064999;28;19924;-64
2022/02/05 15:51:08;;;;;;;;;;;;;;;;;;5066730;28;20329;-64
2022/02/05 15:53:40;;;;;;;;;;;;;;;;;;5065929;28;19931;-63
2022/02/05 15:56:10;;;;;;;;;;;;;;;;;;5065916;28;19931;-63
2022/02/05 15:58:43;;;;;;;;;;;;;;;;;;5065316;28;19967;-63
2022/02/05 16:01:10;;;;;;;;;;;;;;;;;;5065576;28;19975;-63
2022/02/05 16:03:37;;;;;;;;;;;;;;;;;;5068103;28;19929;-63
2022/02/05 16:06:04;;;;;;;;;;;;;;;;;;5068413;28;19939;-63
2022/02/05 16:08:31;;;;;;;;;;;;;;;;;;5063406;28;20366;-62
2022/02/05 16:10:58;;;;;;;;;;;;;;;;;;5064829;28;20290;-63
2022/02/05 16:13:25;;;;;;;;;;;;;;;;;;5064208;28;19925;-63
2022/02/05 16:15:52;;;;;;;;;;;;;;;;;;5069646;28;20011;-64
2022/02/05 16:18:19;;;;;;;;;;;;;;;;;;5072911;28;19925;-64
2022/02/05 16:20:46;;;;;;;;;;;;;;;;;;5068502;28;19925;-65
2022/02/05 16:23:13;;;;;;;;;;;;;;;;;;5071832;28;19984;-64
2022/02/05 16:25:40;;;;;;;;;;;;;;;;;;5071567;28;20028;-64
2022/02/05 16:28:07;;;;;;;;;;;;;;;;;;5070528;28;19962;-64
2022/02/05 16:30:37;;;;;;;;;;;;;;;;;;5071443;28;19936;-65
2022/02/05 16:33:05;;;;;;;;;;;;;;;;;;5064435;28;19925;-63
2022/02/05 16:35:33;;;;;;;;;;;;;;;;;;5066650;28;20024;-63
2022/02/05 16:38:02;;;;;;;;;;;;;;;;;;5065888;28;19925;-64
2022/02/05 16:40:30;;;;;;;;;;;;;;;;;;5069053;28;19990;-65
2022/02/05 16:43:00;;;;;;;;;;;;;;;;;;5071253;28;20393;-64
2022/02/05 16:45:27;;;;;;;;;;;;;;;;;;5071942;28;19933;-63
2022/02/05 16:47:54;;;;;;;;;;;;;;;;;;5067592;28;19931;-63
2022/02/05 16:50:24;;;;;;;;;;;;;;;;;;5067128;28;19925;-66
2022/02/05 16:52:54;;;;;;;;;;;;;;;;;;5066562;28;19947;-65
2022/02/05 16:55:21;;;;;;;;;;;;;;;;;;5062511;28;19931;-65
2022/02/05 16:57:48;;;;;;;;;;;;;;;;;;5066952;28;19990;-64
2022/02/05 17:00:15;;;;;;;;;;;;;;;;;;5061617;28;19933;-64
2022/02/05 17:02:43;;;;;;;;;;;;;;;;;;5068030;28;19952;-62
2022/02/05 17:05:10;;;;;;;;;;;;;;;;;;5067816;28;19925;-64
2022/02/05 17:07:39;;;;;;;;;;;;;;;;;;5067838;28;19940;-63
2022/02/05 17:10:06;;;;;;;;;;;;;;;;;;5063923;28;19928;-63
2022/02/05 17:12:33;;;;;;;;;;;;;;;;;;5063482;28;19932;-62
2022/02/05 17:15:00;;;;;;;;;;;;;;;;;;5059752;28;19924;-62
2022/02/05 17:17:29;;;;;;;;;;;;;;;;;;5071672;28;19958;-63
2022/02/05 17:19:58;;;;;;;;;;;;;;;;;;5066054;28;19924;-64
2022/02/05 17:22:27;;;;;;;;;;;;;;;;;;5063715;28;20015;-64
2022/02/05 17:24:54;;;;;;;;;;;;;;;;;;5067170;28;19924;-65
2022/02/05 17:27:21;;;;;;;;;;;;;;;;;;5064462;28;19925;-62
2022/02/05 17:29:48;;;;;;;;;;;;;;;;;;5064597;28;19928;-63
2022/02/05 17:32:16;;;;;;;;;;;;;;;;;;5065687;28;20015;-63
2022/02/05 17:34:46;;;;;;;;;;;;;;;;;;5060670;28;19932;-63
2022/02/05 17:37:13;;;;;;;;;;;;;;;;;;5059275;28;19935;-63
2022/02/05 17:39:43;;;;;;;;;;;;;;;;;;5062106;28;20024;-63
2022/02/05 17:42:10;;;;;;;;;;;;;;;;;;5057609;28;20016;-64
2022/02/05 17:44:37;;;;;;;;;;;;;;;;;;5063252;28;20273;-64
2022/02/05 17:47:04;;;;;;;;;;;;;;;;;;5062081;28;19932;-63
2022/02/05 17:49:31;;;;;;;;;;;;;;;;;;5066287;28;20382;-64
2022/02/05 17:51:58;;;;;;;;;;;;;;;;;;5058356;28;19935;-63
2022/02/05 17:54:25;;;;;;;;;;;;;;;;;;5065673;28;19930;-63
2022/02/05 17:56:54;;;;;;;;;;;;;;;;;;5060410;28;20390;-64
2022/02/05 17:59:21;;;;;;;;;;;;;;;;;;5063984;28;19960;-64
2022/02/05 18:01:50;;;;;;;;;;;;;;;;;;5062427;28;19924;-63
2022/02/05 18:04:19;;;;;;;;;;;;;;;;;;5061997;28;20290;-63
2022/02/05 18:06:50;;;;;;;;;;;;;;;;;;5061690;28;19963;-64
2022/02/05 18:09:35;;;;;;;;;;;;;;;;;;5061349;28;19924;-63
2022/02/05 18:12:07;;;;;;;;;;;;;;;;;;5061910;28;19936;-65
2022/02/05 18:14:44;;;;;;;;;;;;;;;;;;5063983;28;19924;-64
2022/02/05 18:17:13;;;;;;;;;;;;;;;;;;5060611;28;20279;-63
2022/02/05 18:19:40;;;;;;;;;;;;;;;;;;5062939;28;19924;-62
2022/02/05 18:22:09;;;;;;;;;;;;;;;;;;5062397;28;19931;-66
2022/02/05 18:24:37;;;;;;;;;;;;;;;;;;5066299;28;19931;-67
2022/02/05 18:27:09;;;;;;;;;;;;;;;;;;5062374;28;19928;-64
2022/02/05 18:29:36;;;;;;;;;;;;;;;;;;5066302;28;19936;-66
2022/02/05 18:32:02;;;;;;;;;;;;;;;;;;5069113;28;20566;-63
2022/02/05 18:34:30;;;;;;;;;;;;;;;;;;5065607;28;19925;-64
2022/02/05 18:36:57;;;;;;;;;;;;;;;;;;5061583;28;19925;-63
2022/02/05 18:39:26;;;;;;;;;;;;;;;;;;5063052;28;19939;-65
2022/02/05 18:41:53;;;;;;;;;;;;;;;;;;5063362;28;19928;-62
2022/02/05 18:44:20;;;;;;;;;;;;;;;;;;5061870;28;19924;-64